createdAt,value
2023-01-19T00:01:37.541Z,-0.99
2023-01-19T00:04:05.209Z,-0.99
2023-01-19T00:06:32.901Z,-1.06
2023-01-19T00:09:00.507Z,-1.09
2023-01-19T00:11:28.155Z,-1.10
2023-01-19T00:13:55.727Z,-1.25
2023-01-19T00:16:24.717Z,-1.27
2023-01-19T00:18:53.042Z,-1.31
2023-01-19T00:21:21.636Z,-1.30
2023-01-19T00:23:52.381Z,-1.31
2023-01-19T00:26:22.145Z,-1.23
2023-01-19T00:28:50.708Z,-1.28
2023-01-19T00:31:20.466Z,-1.23
2023-01-19T00:33:52.429Z,-1.49
2023-01-19T00:36:20.551Z,-1.34
2023-01-19T00:38:48.127Z,-1.23
2023-01-19T00:41:15.794Z,-1.37
2023-01-19T00:43:43.438Z,-1.29
2023-01-19T00:46:11.658Z,-1.28
2023-01-19T00:48:39.365Z,-1.24
2023-01-19T00:51:08.283Z,-1.13
2023-01-19T00:53:35.874Z,-1.15
2023-01-19T00:56:03.435Z,-1.11
2023-01-19T00:58:30.995Z,-1.06
2023-01-19T01:01:03.575Z,-0.97
2023-01-19T01:03:31.544Z,-1.07
2023-01-19T01:05:59.255Z,-1.00
2023-01-19T01:08:28.316Z,-1.12
2023-01-19T01:10:56.073Z,-1.43
2023-01-19T01:13:26.340Z,-1.12
2023-01-19T01:15:56.708Z,-0.95
2023-01-19T01:18:25.216Z,-0.99
2023-01-19T01:20:55.269Z,-0.99
2023-01-19T01:23:23.803Z,-0.96
2023-01-19T01:25:52.778Z,-1.02
2023-01-19T01:28:20.425Z,-0.86
2023-01-19T01:30:48.080Z,-0.81
2023-01-19T01:33:15.640Z,-0.80
2023-01-19T01:36:03.317Z,-0.68
2023-01-19T01:38:30.883Z,-0.65
2023-01-19T01:40:59.784Z,-0.58
2023-01-19T01:43:43.542Z,-0.56
2023-01-19T01:46:11.230Z,-0.52
2023-01-19T01:48:41.418Z,-0.41
2023-01-19T01:51:27.193Z,-0.30
2023-01-19T01:54:07.025Z,-0.22
2023-01-19T01:56:40.432Z,-0.21
2023-01-19T01:59:12.241Z,-0.11
2023-01-19T02:01:57.778Z,-0.06
2023-01-19T02:04:26.084Z,0.03
2023-01-19T02:07:11.029Z,0.12
2023-01-19T02:09:56.400Z,0.16
2023-01-19T02:12:43.116Z,0.14
2023-01-19T02:15:18.462Z,0.13
2023-01-19T02:17:46.224Z,0.18
2023-01-19T02:20:14.751Z,0.22
2023-01-19T02:22:48.881Z,0.09
2023-01-19T02:25:19.965Z,0.09
2023-01-19T02:27:48.531Z,0.15
2023-01-19T02:30:17.539Z,0.12
2023-01-19T02:32:45.256Z,0.08
2023-01-19T02:35:13.675Z,0.19
2023-01-19T02:37:44.216Z,0.14
2023-01-19T02:40:15.514Z,0.20
2023-01-19T02:42:47.910Z,0.20
2023-01-19T02:45:19.337Z,0.19
2023-01-19T02:47:49.130Z,0.19
2023-01-19T02:50:43.639Z,0.26
2023-01-19T02:53:37.284Z,0.28
2023-01-19T02:56:16.789Z,0.35
2023-01-19T02:58:52.991Z,0.33
2023-01-19T03:01:29.141Z,0.37
2023-01-19T03:04:01.871Z,0.39
2023-01-19T03:06:40.202Z,0.31
2023-01-19T03:09:15.806Z,0.38
2023-01-19T03:11:49.514Z,0.41
2023-01-19T03:14:23.594Z,0.44
2023-01-19T03:16:55.177Z,0.47
2023-01-19T03:19:28.101Z,0.48
2023-01-19T03:21:59.373Z,0.48
2023-01-19T03:24:31.866Z,0.48
2023-01-19T03:27:04.686Z,0.42
2023-01-19T03:29:35.847Z,0.44
2023-01-19T03:32:10.246Z,0.35
2023-01-19T03:34:40.046Z,0.36
2023-01-19T03:37:09.463Z,0.30
2023-01-19T03:39:37.228Z,0.31
2023-01-19T03:42:10.020Z,0.26
2023-01-19T03:44:42.347Z,0.38
2023-01-19T03:47:12.570Z,0.33
2023-01-19T03:49:43.204Z,0.32
2023-01-19T03:52:12.805Z,0.39
2023-01-19T03:54:41.144Z,0.39
2023-01-19T03:57:10.038Z,0.35
2023-01-19T03:59:38.977Z,0.38
2023-01-19T04:02:06.847Z,0.44
2023-01-19T04:04:34.688Z,0.30
2023-01-19T04:07:02.464Z,0.40
2023-01-19T04:09:30.062Z,0.40
2023-01-19T04:11:57.770Z,0.23
2023-01-19T04:14:25.321Z,0.24
2023-01-19T04:16:54.397Z,0.37
2023-01-19T04:19:21.955Z,0.45
2023-01-19T04:21:50.724Z,0.28
2023-01-19T04:24:18.494Z,0.42
2023-01-19T04:26:46.093Z,0.32
2023-01-19T04:29:14.250Z,0.22
2023-01-19T04:31:41.799Z,0.00
2023-01-19T04:34:11.143Z,-0.19
2023-01-19T04:36:38.675Z,-0.22
2023-01-19T04:39:08.380Z,-0.18
2023-01-19T04:41:36.123Z,-0.30
2023-01-19T04:44:03.854Z,-0.23
2023-01-19T04:46:31.846Z,-0.09
2023-01-19T04:49:00.450Z,-0.11
2023-01-19T04:51:29.561Z,0.17
2023-01-19T04:53:57.785Z,-0.04
2023-01-19T04:56:25.393Z,-0.09
2023-01-19T04:58:52.950Z,0.16
2023-01-19T05:01:20.668Z,0.28
2023-01-19T05:03:48.320Z,-0.05
2023-01-19T05:06:16.089Z,0.21
2023-01-19T05:08:45.545Z,0.46
2023-01-19T05:11:13.224Z,0.54
2023-01-19T05:13:40.763Z,0.46
2023-01-19T05:16:09.008Z,0.56
2023-01-19T05:18:37.147Z,0.47
2023-01-19T05:21:05.000Z,0.54
2023-01-19T05:23:32.937Z,0.45
2023-01-19T05:26:03.278Z,0.39
2023-01-19T05:28:31.994Z,0.32
2023-01-19T05:30:59.735Z,0.31
2023-01-19T05:33:27.733Z,0.26
2023-01-19T05:35:55.879Z,0.21
2023-01-19T05:38:34.570Z,0.34
2023-01-19T05:41:04.318Z,0.26
2023-01-19T05:43:32.122Z,0.28
2023-01-19T05:45:59.770Z,0.09
2023-01-19T05:48:27.340Z,-0.06
2023-01-19T05:50:58.794Z,0.00
2023-01-19T05:53:26.791Z,-0.10
2023-01-19T05:55:54.417Z,0.28
2023-01-19T05:58:23.427Z,0.32
2023-01-19T06:00:51.107Z,0.43
2023-01-19T06:03:18.856Z,0.53
2023-01-19T06:05:46.444Z,0.55
2023-01-19T06:08:14.273Z,0.42
2023-01-19T06:10:42.025Z,0.54
2023-01-19T06:13:11.082Z,0.69
2023-01-19T06:15:39.975Z,0.74
2023-01-19T06:18:07.561Z,0.75
2023-01-19T06:20:35.096Z,0.79
2023-01-19T06:23:02.975Z,0.87
2023-01-19T06:25:30.703Z,0.96
2023-01-19T06:27:58.272Z,1.03
2023-01-19T06:30:25.982Z,1.00
2023-01-19T06:32:55.592Z,1.15
2023-01-19T06:35:23.139Z,1.15
2023-01-19T06:37:50.928Z,1.12
2023-01-19T06:40:18.854Z,0.91
2023-01-19T06:42:46.373Z,1.03
2023-01-19T06:45:13.926Z,1.16
2023-01-19T06:47:41.501Z,1.01
2023-01-19T06:50:11.865Z,1.13
2023-01-19T06:52:42.346Z,1.16
2023-01-19T06:55:10.760Z,1.16
2023-01-19T06:57:38.877Z,1.18
2023-01-19T07:00:08.816Z,1.17
2023-01-19T07:02:37.060Z,1.18
2023-01-19T07:05:06.859Z,1.29
2023-01-19T07:07:35.820Z,1.29
2023-01-19T07:10:03.462Z,1.29
2023-01-19T07:12:31.471Z,1.29
2023-01-19T07:14:59.219Z,1.25
2023-01-19T07:17:27.072Z,1.18
2023-01-19T07:19:54.629Z,1.20
2023-01-19T07:22:22.207Z,1.30
2023-01-19T07:24:51.117Z,1.36
2023-01-19T07:27:18.675Z,1.28
2023-01-19T07:29:46.262Z,1.32
2023-01-19T07:32:14.664Z,1.27
2023-01-19T07:34:42.285Z,1.49
2023-01-19T07:37:09.927Z,1.39
2023-01-19T07:39:37.553Z,1.26
2023-01-19T07:42:06.629Z,1.59
2023-01-19T07:44:34.390Z,1.28
2023-01-19T07:47:02.023Z,1.65
2023-01-19T07:49:29.742Z,1.58
2023-01-19T07:51:57.319Z,1.57
2023-01-19T07:54:25.277Z,1.36
2023-01-19T07:56:55.039Z,1.31
2023-01-19T07:59:24.371Z,1.21
2023-01-19T08:01:53.395Z,1.45
2023-01-19T08:04:21.137Z,1.33
2023-01-19T08:06:49.178Z,1.31
2023-01-19T08:09:16.760Z,1.59
2023-01-19T08:11:44.539Z,1.70
2023-01-19T08:14:12.344Z,1.61
2023-01-19T08:16:41.263Z,1.60
2023-01-19T08:19:08.940Z,1.59
2023-01-19T08:21:38.393Z,1.61
2023-01-19T08:24:06.583Z,1.39
2023-01-19T08:26:36.571Z,1.40
2023-01-19T08:29:06.911Z,1.46
2023-01-19T08:31:34.735Z,1.58
2023-01-19T08:34:03.829Z,1.78
2023-01-19T08:36:31.489Z,1.96
2023-01-19T08:38:59.316Z,1.76
2023-01-19T08:41:27.385Z,1.76
2023-01-19T08:43:55.008Z,2.13
2023-01-19T08:46:22.996Z,2.03
2023-01-19T08:48:50.745Z,2.04
2023-01-19T08:51:20.447Z,2.14
2023-01-19T08:53:48.038Z,1.97
2023-01-19T08:56:15.991Z,2.00
2023-01-19T08:58:46.684Z,2.13
2023-01-19T09:01:18.541Z,2.24
2023-01-19T09:03:46.214Z,2.11
2023-01-19T09:06:17.010Z,2.12
2023-01-19T09:08:45.978Z,2.03
2023-01-19T09:11:16.364Z,2.23
2023-01-19T09:13:44.083Z,2.00
2023-01-19T09:16:13.287Z,2.23
2023-01-19T09:18:41.074Z,2.35
2023-01-19T09:21:09.184Z,2.46
2023-01-19T09:23:37.261Z,2.40
2023-01-19T09:26:07.080Z,2.51
2023-01-19T09:28:34.961Z,2.56
2023-01-19T09:31:07.425Z,2.64
2023-01-19T09:33:35.896Z,2.26
2023-01-19T09:36:03.437Z,2.36
2023-01-19T09:38:32.859Z,2.52
2023-01-19T09:41:02.023Z,2.53
2023-01-19T09:43:38.316Z,2.46
2023-01-19T09:46:11.639Z,2.55
2023-01-19T09:48:48.054Z,2.64
2023-01-19T09:51:22.892Z,2.55
2023-01-19T09:53:56.630Z,2.59
2023-01-19T09:56:25.405Z,2.88
2023-01-19T09:58:54.403Z,3.08
2023-01-19T10:01:40.383Z,3.02
2023-01-19T10:04:26.853Z,3.45
2023-01-19T10:07:04.547Z,3.85
2023-01-19T10:09:39.279Z,3.75
2023-01-19T10:12:17.947Z,3.55
2023-01-19T10:14:54.911Z,3.54
2023-01-19T10:17:39.507Z,3.47
2023-01-19T10:20:15.827Z,3.22
2023-01-19T10:22:44.492Z,3.22
2023-01-19T10:25:18.520Z,3.43
2023-01-19T10:27:47.359Z,3.84
2023-01-19T10:30:23.256Z,3.65
2023-01-19T10:32:51.818Z,3.76
2023-01-19T10:35:25.532Z,3.55
2023-01-19T10:37:56.231Z,3.69
2023-01-19T10:40:31.939Z,3.77
2023-01-19T10:42:59.950Z,3.45
2023-01-19T10:45:32.028Z,3.60
2023-01-19T10:48:07.218Z,3.32
2023-01-19T10:50:39.493Z,3.34
2023-01-19T10:53:19.034Z,3.65
2023-01-19T10:55:47.379Z,3.95
2023-01-19T10:58:28.982Z,3.42
2023-01-19T11:01:14.153Z,3.46
2023-01-19T11:03:41.986Z,3.60
2023-01-19T11:06:31.409Z,3.58
2023-01-19T11:09:13.450Z,3.58
2023-01-19T11:11:50.051Z,3.69
2023-01-19T11:14:20.773Z,3.79
2023-01-19T11:16:52.690Z,3.77
2023-01-19T11:19:23.217Z,3.44
2023-01-19T11:21:50.966Z,3.43
2023-01-19T11:24:18.666Z,3.31
2023-01-19T11:26:49.008Z,3.53
2023-01-19T11:29:21.021Z,3.43
2023-01-19T11:31:50.778Z,4.01
2023-01-19T11:34:27.601Z,4.51
2023-01-19T11:37:00.180Z,4.13
2023-01-19T11:39:29.619Z,3.54
2023-01-19T11:41:59.978Z,3.61
2023-01-19T11:44:32.175Z,3.69
2023-01-19T11:47:05.098Z,3.66
2023-01-19T11:49:41.372Z,3.55
2023-01-19T11:52:20.716Z,3.38
2023-01-19T11:54:55.606Z,3.42
2023-01-19T11:57:23.381Z,3.25
2023-01-19T11:59:50.980Z,3.48
2023-01-19T12:02:27.526Z,3.56
2023-01-19T12:05:00.287Z,3.56
2023-01-19T12:07:31.990Z,3.40
2023-01-19T12:10:08.437Z,3.08
2023-01-19T12:12:40.406Z,3.20
2023-01-19T12:15:18.431Z,3.16
2023-01-19T12:17:50.865Z,3.15
2023-01-19T12:20:28.007Z,3.21
2023-01-19T12:23:03.876Z,3.36
2023-01-19T12:25:43.099Z,3.12
2023-01-19T12:28:13.525Z,3.12
2023-01-19T12:30:41.358Z,3.10
2023-01-19T12:33:34.205Z,3.19
2023-01-19T12:36:04.038Z,3.22
2023-01-19T12:38:44.010Z,3.10
2023-01-19T12:41:24.313Z,3.25
2023-01-19T12:44:16.748Z,3.12
2023-01-19T12:46:45.974Z,3.07
2023-01-19T12:49:29.230Z,3.02
2023-01-19T12:52:18.397Z,3.14
2023-01-19T12:54:54.649Z,3.34
2023-01-19T12:57:27.971Z,3.20
2023-01-19T13:00:00.944Z,3.05
2023-01-19T13:02:47.369Z,3.07
2023-01-19T13:05:23.720Z,3.13
2023-01-19T13:08:31.208Z,3.14
2023-01-19T13:11:26.326Z,3.14
2023-01-19T13:14:35.455Z,3.07
2023-01-19T13:17:06.475Z,3.12
2023-01-19T13:19:44.115Z,3.03
2023-01-19T13:22:49.399Z,3.00
2023-01-19T13:25:30.304Z,3.24
2023-01-19T13:27:58.380Z,3.26
2023-01-19T13:30:29.175Z,3.23
2023-01-19T13:33:02.521Z,3.25
2023-01-19T13:35:30.496Z,3.39
2023-01-19T13:37:59.825Z,3.09
2023-01-19T13:40:37.571Z,3.17
2023-01-19T13:43:15.758Z,3.32
2023-01-19T13:45:51.124Z,3.22
2023-01-19T13:48:23.291Z,3.19
2023-01-19T13:51:02.478Z,3.23
2023-01-19T13:53:30.562Z,3.23
2023-01-19T13:56:17.375Z,3.21
2023-01-19T13:58:45.181Z,3.26
2023-01-19T14:01:23.567Z,3.31
2023-01-19T14:03:52.380Z,3.47
2023-01-19T14:06:32.108Z,3.48
2023-01-19T14:09:10.378Z,3.75
2023-01-19T14:11:39.313Z,3.57
2023-01-19T14:14:23.435Z,3.83
2023-01-19T14:16:51.215Z,3.77
2023-01-19T14:19:18.778Z,3.78
2023-01-19T14:21:46.426Z,3.75
2023-01-19T14:24:18.610Z,3.86
2023-01-19T14:26:49.140Z,3.99
2023-01-19T14:29:22.672Z,3.85
2023-01-19T14:31:52.646Z,3.74
2023-01-19T14:34:38.807Z,3.95
2023-01-19T14:37:16.694Z,4.08
2023-01-19T14:39:49.061Z,4.11
2023-01-19T14:42:25.366Z,3.79
2023-01-19T14:44:54.470Z,3.79
2023-01-19T14:47:32.257Z,3.88
2023-01-19T14:50:04.902Z,3.78
2023-01-19T14:52:35.995Z,3.87
2023-01-19T14:55:08.167Z,3.90
2023-01-19T14:57:37.879Z,3.74
2023-01-19T15:00:17.679Z,3.43
2023-01-19T15:02:45.521Z,3.50
2023-01-19T15:05:13.821Z,3.52
2023-01-19T15:07:44.407Z,3.50
2023-01-19T15:10:17.738Z,3.52
2023-01-19T15:12:46.874Z,3.42
2023-01-19T15:15:16.607Z,3.43
2023-01-19T15:17:44.669Z,3.54
2023-01-19T15:20:18.499Z,3.42
2023-01-19T15:22:46.728Z,3.26
2023-01-19T15:25:15.867Z,3.43
2023-01-19T15:27:44.030Z,3.37
2023-01-19T15:30:18.500Z,3.33
2023-01-19T15:32:46.649Z,3.44
2023-01-19T15:35:16.355Z,3.34
2023-01-19T15:37:43.986Z,3.35
2023-01-19T15:40:12.442Z,3.46
2023-01-19T15:42:40.293Z,3.22
2023-01-19T15:45:34.860Z,3.25
2023-01-19T15:48:04.979Z,3.07
2023-01-19T15:50:32.968Z,3.24
2023-01-19T15:53:00.569Z,3.23
2023-01-19T15:55:28.824Z,3.34
2023-01-19T15:58:01.210Z,3.29
2023-01-19T16:00:31.116Z,3.34
2023-01-19T16:02:59.659Z,3.20
2023-01-19T16:05:41.513Z,3.12
2023-01-19T16:08:10.286Z,3.15
2023-01-19T16:10:37.863Z,3.15
2023-01-19T16:13:05.554Z,3.27
2023-01-19T16:15:36.250Z,3.36
2023-01-19T16:18:04.255Z,3.36
2023-01-19T16:20:31.998Z,3.38
2023-01-19T16:23:13.772Z,3.20
2023-01-19T16:25:42.363Z,3.05
2023-01-19T16:28:09.967Z,3.16
2023-01-19T16:30:38.927Z,3.07
2023-01-19T16:33:06.636Z,3.09
2023-01-19T16:35:34.395Z,2.91
2023-01-19T16:38:02.070Z,3.05
2023-01-19T16:40:29.710Z,2.94
2023-01-19T16:42:57.309Z,3.03
2023-01-19T16:45:25.313Z,3.20
2023-01-19T16:47:54.246Z,3.17
2023-01-19T16:50:21.817Z,3.16
2023-01-19T16:52:50.572Z,2.98
2023-01-19T16:55:18.391Z,3.03
2023-01-19T16:57:45.970Z,3.13
2023-01-19T17:00:14.675Z,3.12
2023-01-19T17:02:43.038Z,3.24
2023-01-19T17:05:12.470Z,3.28
2023-01-19T17:07:40.226Z,3.26
2023-01-19T17:10:09.594Z,3.32
2023-01-19T17:12:37.574Z,3.11
2023-01-19T17:15:06.078Z,3.08
2023-01-19T17:17:34.890Z,2.88
2023-01-19T17:20:03.492Z,2.91
2023-01-19T17:22:32.411Z,3.02
2023-01-19T17:25:00.010Z,2.78
2023-01-19T17:27:27.667Z,2.92
2023-01-19T17:29:55.233Z,2.95
2023-01-19T17:32:22.858Z,2.94
2023-01-19T17:34:50.618Z,2.83
2023-01-19T17:37:18.264Z,2.81
2023-01-19T17:39:47.212Z,2.84
2023-01-19T17:42:14.760Z,2.80
2023-01-19T17:44:42.847Z,2.87
2023-01-19T17:47:10.443Z,2.94
2023-01-19T17:49:38.102Z,2.91
2023-01-19T17:52:06.078Z,2.70
2023-01-19T17:54:33.800Z,2.78
2023-01-19T17:57:02.768Z,2.75
2023-01-19T17:59:30.461Z,2.81
2023-01-19T18:01:58.021Z,2.71
2023-01-19T18:04:25.730Z,2.88
2023-01-19T18:06:53.434Z,2.91
2023-01-19T18:09:21.059Z,2.99
2023-01-19T18:11:48.657Z,3.04
2023-01-19T18:14:17.581Z,3.11
2023-01-19T18:16:45.244Z,3.15
2023-01-19T18:19:12.847Z,3.13
2023-01-19T18:21:40.539Z,3.12
2023-01-19T18:24:08.590Z,3.02
2023-01-19T18:26:37.561Z,2.95
2023-01-19T18:29:05.253Z,2.86
2023-01-19T18:31:34.363Z,3.10
2023-01-19T18:34:02.198Z,2.77
2023-01-19T18:36:31.873Z,3.08
2023-01-19T18:38:59.463Z,3.12
2023-01-19T18:41:28.998Z,3.12
2023-01-19T18:43:58.717Z,2.94
2023-01-19T18:46:27.326Z,3.05
2023-01-19T18:48:56.384Z,3.00
2023-01-19T18:51:24.034Z,3.21
2023-01-19T18:53:51.685Z,3.14
2023-01-19T18:56:19.333Z,2.85
2023-01-19T18:58:47.146Z,3.14
2023-01-19T19:01:20.595Z,3.21
2023-01-19T19:03:48.336Z,3.30
2023-01-19T19:06:20.488Z,3.24
2023-01-19T19:08:50.038Z,3.10
2023-01-19T19:11:17.804Z,3.11
2023-01-19T19:13:45.638Z,3.04
2023-01-19T19:16:14.307Z,2.95
2023-01-19T19:18:42.181Z,2.84
2023-01-19T19:21:11.456Z,2.76
2023-01-19T19:23:40.483Z,2.72
2023-01-19T19:26:10.569Z,2.74
2023-01-19T19:28:39.307Z,2.71
2023-01-19T19:31:09.161Z,2.58
2023-01-19T19:33:37.644Z,2.49
2023-01-19T19:36:06.761Z,2.67
2023-01-19T19:38:36.783Z,2.76
2023-01-19T19:41:12.575Z,2.67
2023-01-19T19:43:40.887Z,2.65
2023-01-19T19:46:10.468Z,2.48
2023-01-19T19:48:39.481Z,2.69
2023-01-19T19:51:17.716Z,2.49
2023-01-19T19:53:46.448Z,2.61
2023-01-19T19:56:15.997Z,2.47
2023-01-19T19:58:44.173Z,2.53
2023-01-19T20:01:13.857Z,2.61
2023-01-19T20:03:42.031Z,2.81
2023-01-19T20:06:11.892Z,2.49
2023-01-19T20:08:39.645Z,2.88
2023-01-19T20:11:09.369Z,2.72
2023-01-19T20:13:39.758Z,2.87
2023-01-19T20:16:10.870Z,2.79
2023-01-19T20:18:39.703Z,3.00
2023-01-19T20:21:12.514Z,3.05
2023-01-19T20:23:40.303Z,2.90
2023-01-19T20:26:09.390Z,3.02
2023-01-19T20:28:39.423Z,3.16
2023-01-19T20:31:12.338Z,3.19
2023-01-19T20:33:40.146Z,3.12
2023-01-19T20:36:08.638Z,3.18
2023-01-19T20:38:36.527Z,3.23
2023-01-19T20:41:04.672Z,3.19
2023-01-19T20:43:32.657Z,2.74
2023-01-19T20:46:02.246Z,3.22
2023-01-19T20:48:30.172Z,3.12
2023-01-19T20:51:01.682Z,3.17
2023-01-19T20:53:30.498Z,3.04
2023-01-19T20:55:58.238Z,2.56
2023-01-19T20:58:26.117Z,2.96
2023-01-19T21:00:53.747Z,2.78
2023-01-19T21:03:22.823Z,2.71
2023-01-19T21:05:50.796Z,2.69
2023-01-19T21:08:18.665Z,2.68
2023-01-19T21:10:46.365Z,2.62
2023-01-19T21:13:14.156Z,2.53
2023-01-19T21:15:41.729Z,2.38
2023-01-19T21:18:09.304Z,2.23
2023-01-19T21:20:38.398Z,2.14
2023-01-19T21:23:05.965Z,2.00
2023-01-19T21:25:33.632Z,2.03
2023-01-19T21:28:01.214Z,1.97
2023-01-19T21:30:29.497Z,2.13
2023-01-19T21:32:57.147Z,2.14
2023-01-19T21:35:24.771Z,2.12
2023-01-19T21:37:53.907Z,2.08
2023-01-19T21:40:21.573Z,2.02
2023-01-19T21:42:49.104Z,1.89
2023-01-19T21:45:17.516Z,1.99
2023-01-19T21:47:45.087Z,2.01
2023-01-19T21:50:13.246Z,1.95
2023-01-19T21:52:40.843Z,1.93
2023-01-19T21:55:10.553Z,1.94
2023-01-19T21:57:38.295Z,2.04
2023-01-19T22:00:08.009Z,1.94
2023-01-19T22:02:38.912Z,1.96
2023-01-19T22:05:07.511Z,1.89
2023-01-19T22:07:35.060Z,2.03
2023-01-19T22:10:02.635Z,2.07
2023-01-19T22:12:32.707Z,2.19
2023-01-19T22:15:00.237Z,2.11
2023-01-19T22:17:27.787Z,1.99
2023-01-19T22:19:55.429Z,1.94
2023-01-19T22:22:23.174Z,2.19
2023-01-19T22:24:50.864Z,2.02
2023-01-19T22:27:18.610Z,2.17
2023-01-19T22:29:47.985Z,2.13
2023-01-19T22:32:15.663Z,2.02
2023-01-19T22:34:43.260Z,1.86
2023-01-19T22:37:10.826Z,1.92
2023-01-19T22:39:38.429Z,1.72
2023-01-19T22:42:06.067Z,1.77
2023-01-19T22:44:33.648Z,1.54
2023-01-19T22:47:02.612Z,1.73
2023-01-19T22:49:30.410Z,1.60
2023-01-19T22:51:58.155Z,1.63
2023-01-19T22:54:25.694Z,1.52
2023-01-19T22:56:53.327Z,1.50
2023-01-19T22:59:20.951Z,1.62
2023-01-19T23:01:50.555Z,1.47
2023-01-19T23:04:19.754Z,1.54
2023-01-19T23:06:50.506Z,1.32
2023-01-19T23:09:18.807Z,1.51
2023-01-19T23:11:50.442Z,1.67
2023-01-19T23:14:20.325Z,1.57
2023-01-19T23:16:48.024Z,1.36
2023-01-19T23:19:17.072Z,1.34
2023-01-19T23:21:46.835Z,1.59
2023-01-19T23:24:14.418Z,1.47
2023-01-19T23:26:41.972Z,1.37
2023-01-19T23:29:12.775Z,1.20
2023-01-19T23:31:43.715Z,1.03
2023-01-19T23:34:13.083Z,0.92
2023-01-19T23:36:42.427Z,0.73
2023-01-19T23:39:15.507Z,0.63
2023-01-19T23:41:43.086Z,0.57
2023-01-19T23:44:10.945Z,0.59
2023-01-19T23:46:38.714Z,0.47
2023-01-19T23:49:06.589Z,0.42
2023-01-19T23:51:34.606Z,0.36
2023-01-19T23:54:02.828Z,0.28
2023-01-19T23:56:33.927Z,0.25
2023-01-19T23:59:04.270Z,0.19
